Terminal Aerodrome Forecast
Issued by NWS Portland, OR

Home | Current Version | Previous Version | Text Only | Print | Product List | Glossary On
Versions: 1 2 3 4 5 6 7 8 9 10 11 12 13 14 15 16 17 18
000
FTUS46 KPQR 250604 AAA
TAFTTD
TAF AMD
KTTD 250604Z 2506/2606 08013G25KT P6SM SCT050 BKN100
     FM251300 09015G25KT P6SM BKN050
     FM251900 12015G25KT P6SM -SHRA BKN050 OVC080
     FM252100 16012G22KT P6SM -RA SCT030 OVC050=

USA.gov is the U.S. government's official web portal to all federal, state and local government web resources and services.